Time;durP1;ratioP1;P1;durP2;ratioP2;P2;SDS_P1;SDS_P2;PMS_P1;PMS_P2;Temp;Humidity;BMP_temperature;BMP_pressure;BME280_temperature;BME280_humidity;BME280_pressure;Samples;Min_cycle;Max_cycle;Signal;HPM_P1;HPM_P2
2021/08/17 00:07:53;;;;;;;19.52;4.80;;;13.80;91.50;;;;;;4994448;28;20525;-86
2021/08/17 00:13:42;;;;;;;25.42;5.95;;;13.60;91.60;;;;;;4994395;28;20097;-86
2021/08/17 00:19:31;;;;;;;18.02;4.85;;;13.40;91.80;;;;;;4994176;28;20037;-86
2021/08/17 00:25:20;;;;;;;20.02;5.10;;;13.40;91.90;;;;;;4994320;28;20127;-85
2021/08/17 00:31:09;;;;;;;19.70;4.97;;;13.40;92.10;;;;;;4993903;28;20386;-86
2021/08/17 00:36:57;;;;;;;18.38;5.40;;;13.30;91.90;;;;;;4994172;28;20136;-85
2021/08/17 00:42:47;;;;;;;21.10;5.65;;;13.30;92.10;;;;;;4993761;28;20439;-86
2021/08/17 00:48:36;;;;;;;16.38;4.25;;;13.30;92.00;;;;;;4994134;28;20533;-86
2021/08/17 00:54:25;;;;;;;21.23;5.80;;;13.20;92.00;;;;;;4994047;28;20130;-86
2021/08/17 01:00:15;;;;;;;18.83;5.28;;;13.20;92.10;;;;;;4997381;28;20068;-85
2021/08/17 01:09:57;;;;;;;18.08;5.78;;;13.30;92.20;;;;;;5017094;28;20060;-85
2021/08/17 01:15:45;;;;;;;17.05;5.18;;;13.20;92.10;;;;;;5016905;28;20133;-85
2021/08/17 01:21:34;;;;;;;25.42;6.47;;;13.20;92.20;;;;;;5016735;28;20048;-84
2021/08/17 01:27:23;;;;;;;22.73;7.03;;;13.20;92.20;;;;;;5016746;28;20072;-85
2021/08/17 01:33:15;;;;;;;20.55;5.47;;;13.10;92.20;;;;;;5016620;28;20032;-85
2021/08/17 01:39:04;;;;;;;21.13;5.35;;;13.00;92.00;;;;;;5016225;28;20044;-85
2021/08/17 01:44:55;;;;;;;22.92;7.18;;;12.90;92.20;;;;;;5016471;28;20045;-85
2021/08/17 01:50:43;;;;;;;21.40;6.63;;;12.80;91.90;;;;;;5016330;28;20045;-85
2021/08/17 01:56:31;;;;;;;22.48;7.15;;;12.70;91.90;;;;;;5015942;28;20497;-85
2021/08/17 02:02:20;;;;;;;22.75;6.75;;;12.60;92.10;;;;;;5015886;28;20057;-85
2021/08/17 02:12:03;;;;;;;28.13;7.53;;;12.60;92.10;;;;;;4996027;28;20036;-84
2021/08/17 02:17:51;;;;;;;26.50;6.40;;;12.60;92.40;;;;;;4996022;28;20434;-85
2021/08/17 02:23:40;;;;;;;22.63;7.32;;;12.60;92.30;;;;;;4996218;28;20093;-85
2021/08/17 02:29:28;;;;;;;22.08;7.53;;;12.50;92.10;;;;;;4995952;28;20033;-85
2021/08/17 02:35:16;;;;;;;19.65;6.22;;;12.40;92.10;;;;;;4995921;28;20426;-85
2021/08/17 02:41:06;;;;;;;20.17;6.32;;;12.30;92.10;;;;;;4995465;28;20104;-85
2021/08/17 02:46:55;;;;;;;21.08;6.97;;;12.30;92.10;;;;;;4995422;28;20089;-85
2021/08/17 02:52:44;;;;;;;14.50;6.05;;;12.20;92.10;;;;;;4998822;28;20024;-86
2021/08/17 02:58:32;;;;;;;23.27;7.40;;;12.10;92.10;;;;;;4997388;28;20096;-85
2021/08/17 03:04:21;;;;;;;19.17;7.30;;;12.00;92.10;;;;;;4995288;28;20395;-85
2021/08/17 03:14:05;;;;;;;22.90;8.85;;;11.90;92.10;;;;;;4995234;28;20146;-85
2021/08/17 03:19:53;;;;;;;21.23;7.57;;;11.90;92.20;;;;;;4994314;28;20049;-85
2021/08/17 03:25:41;;;;;;;24.67;9.45;;;11.80;92.20;;;;;;4994756;28;20049;-86
2021/08/17 03:31:30;;;;;;;21.80;8.48;;;11.80;92.20;;;;;;4994668;28;20080;-85
2021/08/17 03:37:19;;;;;;;27.52;8.80;;;11.70;92.30;;;;;;4994488;28;20037;-85
2021/08/17 03:43:08;;;;;;;23.08;9.23;;;11.80;92.60;;;;;;4994263;28;20041;-85
2021/08/17 03:48:56;;;;;;;26.10;7.55;;;11.90;92.80;;;;;;4994451;28;20037;-85
2021/08/17 03:54:45;;;;;;;28.33;8.82;;;12.00;92.70;;;;;;4994604;28;20053;-85
2021/08/17 04:00:33;;;;;;;22.02;9.40;;;12.00;92.60;;;;;;4994543;28;20536;-85
2021/08/17 04:06:25;;;;;;;20.90;9.25;;;11.90;92.40;;;;;;4994602;28;20037;-84
2021/08/17 04:16:37;;;;;;;20.67;8.60;;;11.80;92.30;;;;;;4994481;28;20037;-85
2021/08/17 04:22:25;;;;;;;22.42;9.25;;;11.80;92.40;;;;;;4994879;28;20126;-88
2021/08/17 04:28:13;;;;;;;17.63;8.10;;;11.80;92.40;;;;;;4994593;28;20044;-88
2021/08/17 04:34:02;;;;;;;16.83;8.35;;;11.80;92.40;;;;;;4998486;28;20092;-89
2021/08/17 04:39:51;;;;;;;21.23;7.93;;;11.80;92.50;;;;;;4998262;28;20026;-89
2021/08/17 04:45:44;;;;;;;17.17;7.35;;;11.80;92.40;;;;;;4998018;28;20475;-89
2021/08/17 04:51:33;;;;;;;20.42;8.23;;;11.90;92.40;;;;;;4998096;28;20104;-89
2021/08/17 04:57:22;;;;;;;21.30;9.00;;;11.90;92.50;;;;;;5022188;28;20053;-89
2021/08/17 05:03:11;;;;;;;16.42;5.18;;;12.10;92.60;;;;;;4998223;28;20081;-86
2021/08/17 05:09:00;;;;;;;19.60;7.40;;;12.20;92.70;;;;;;4997860;28;20029;-88
2021/08/17 05:18:50;;;;;;;21.38;8.60;;;12.60;92.70;;;;;;4997759;28;20113;-86
2021/08/17 05:24:39;;;;;;;17.50;7.53;;;12.90;92.80;;;;;;4997713;28;20088;-89
2021/08/17 05:30:28;;;;;;;18.92;6.82;;;13.10;92.70;;;;;;4997017;28;20042;-85
2021/08/17 05:36:17;;;;;;;17.92;6.63;;;13.30;92.70;;;;;;4997150;28;20029;-86
2021/08/17 05:42:05;;;;;;;15.02;5.47;;;13.60;92.70;;;;;;4995968;28;20114;-84
2021/08/17 05:47:54;;;;;;;24.67;8.70;;;13.80;92.50;;;;;;4996913;28;20033;-87
2021/08/17 05:53:43;;;;;;;19.33;5.88;;;14.00;92.40;;;;;;4996839;28;20080;-85
2021/08/17 05:59:33;;;;;;;22.23;6.85;;;14.30;92.30;;;;;;4996565;28;20081;-85
2021/08/17 06:05:22;;;;;;;19.20;6.07;;;14.50;92.20;;;;;;4996969;28;20096;-86
2021/08/17 06:11:11;;;;;;;21.63;7.07;;;14.70;92.10;;;;;;4996563;28;20037;-86
2021/08/17 06:20:55;;;;;;;17.70;6.55;;;15.00;91.90;;;;;;5012831;28;20077;-89
2021/08/17 06:26:44;;;;;;;22.38;6.97;;;15.10;91.60;;;;;;4996833;28;20033;-86
2021/08/17 06:32:34;;;;;;;19.67;6.85;;;15.20;91.40;;;;;;4997190;28;20026;-88
2021/08/17 06:38:22;;;;;;;20.98;8.00;;;15.20;91.70;;;;;;4996157;28;20040;-88
2021/08/17 06:44:11;;;;;;;17.80;6.63;;;15.30;91.30;;;;;;4995758;28;20065;-85
2021/08/17 06:49:59;;;;;;;20.20;8.20;;;14.90;91.10;;;;;;4996184;28;20089;-88
2021/08/17 06:55:47;;;;;;;18.10;5.50;;;14.70;91.40;;;;;;4995783;28;20049;-86
2021/08/17 07:01:37;;;;;;;16.17;6.97;;;14.80;92.00;;;;;;4995975;28;20430;-89
2021/08/17 07:07:25;;;;;;;14.45;6.82;;;15.00;92.10;;;;;;4995724;28;20514;-86
2021/08/17 07:13:14;;;;;;;16.55;6.85;;;15.30;92.40;;;;;;4995553;28;20044;-88
2021/08/17 07:22:58;;;;;;;14.98;7.07;;;16.10;92.50;;;;;;4995040;28;20125;-87
2021/08/17 07:28:47;;;;;;;15.15;6.07;;;16.50;92.30;;;;;;4995235;28;20048;-83
2021/08/17 07:34:36;;;;;;;14.90;6.53;;;17.10;92.50;;;;;;4994896;28;20034;-84
2021/08/17 07:40:25;;;;;;;18.92;5.88;;;17.60;91.80;;;;;;4999828;28;20426;-86
2021/08/17 07:46:13;;;;;;;20.45;7.53;;;17.90;90.70;;;;;;5000912;28;20445;-85
2021/08/17 07:52:03;;;;;;;21.65;6.38;;;18.10;91.30;;;;;;5000731;28;20053;-85
2021/08/17 07:57:51;;;;;;;21.20;6.85;;;18.30;90.60;;;;;;4994673;28;20045;-84
2021/08/17 08:03:40;;;;;;;12.90;3.33;;;18.10;90.00;;;;;;4994534;28;20126;-85
2021/08/17 08:09:29;;;;;;;31.83;8.02;;;18.10;90.80;;;;;;4995166;28;20034;-89
2021/08/17 08:15:17;;;;;;;18.38;6.57;;;18.00;90.00;;;;;;4994662;28;20163;-85
2021/08/17 08:25:01;;;;;;;16.90;4.70;;;18.20;91.30;;;;;;4994589;28;20086;-83
2021/08/17 08:30:50;;;;;;;17.25;4.38;;;18.90;90.90;;;;;;4994345;28;20037;-85
2021/08/17 08:36:39;;;;;;;28.75;8.73;;;19.40;90.50;;;;;;4995497;28;20565;-85
2021/08/17 08:42:31;;;;;;;36.83;8.80;;;19.60;89.20;;;;;;4994603;28;20080;-84
2021/08/17 08:48:21;;;;;;;27.48;6.72;;;19.30;87.10;;;;;;4994658;28;20094;-84
2021/08/17 08:54:11;;;;;;;32.30;8.68;;;18.50;87.60;;;;;;4994139;28;20541;-85
2021/08/17 08:59:59;;;;;;;24.55;7.70;;;18.70;91.00;;;;;;4995300;28;20037;-87
2021/08/17 09:05:55;;;;;;;18.63;6.72;;;19.70;90.80;;;;;;5010662;28;20054;-85
2021/08/17 09:11:49;;;;;;;20.98;6.35;;;20.10;90.20;;;;;;4995179;28;20114;-85
2021/08/17 09:17:40;;;;;;;31.98;8.02;;;20.50;87.60;;;;;;4995673;28;20065;-83
2021/08/17 09:27:20;;;;;;;18.52;4.63;;;20.70;86.60;;;;;;4996940;28;20080;-84
2021/08/17 09:33:13;;;;;;;20.63;6.57;;;20.60;87.70;;;;;;4997364;28;20037;-82
2021/08/17 09:39:01;;;;;;;17.80;4.80;;;20.30;86.80;;;;;;4996769;28;20041;-84
2021/08/17 09:45:16;;;;;;;21.55;6.43;;;20.00;86.00;;;;;;4996758;28;20096;-84
2021/08/17 09:51:04;;;;;;;26.02;7.45;;;19.40;86.60;;;;;;4996394;28;20110;-84
2021/08/17 09:57:05;;;;;;;13.75;3.70;;;19.30;89.20;;;;;;4999758;28;20024;-85
2021/08/17 10:02:53;;;;;;;13.70;4.55;;;19.60;88.80;;;;;;4996450;28;20053;-84
2021/08/17 10:08:42;;;;;;;12.07;3.97;;;20.20;89.70;;;;;;4996355;28;20081;-83
2021/08/17 10:14:31;;;;;;;10.50;3.85;;;20.40;86.70;;;;;;4996057;28;20069;-83
2021/08/17 10:20:20;;;;;;;5.80;2.63;;;20.40;86.90;;;;;;4996275;28;20093;-84
2021/08/17 10:30:23;;;;;;;19.00;5.18;;;22.30;85.80;;;;;;4995904;28;20054;-87
2021/08/17 10:36:27;;;;;;;15.80;4.88;;;22.30;83.40;;;;;;4996329;28;20084;-87
2021/08/17 10:42:27;;;;;;;11.98;4.38;;;23.20;84.20;;;;;;4995562;28;20049;-84
2021/08/17 10:48:49;;;;;;;10.55;3.03;;;23.80;82.40;;;;;;4995439;28;20057;-84
2021/08/17 10:54:42;;;;;;;16.77;4.20;;;24.40;79.00;;;;;;4995606;28;20034;-84
2021/08/17 11:00:47;;;;;;;13.05;4.32;;;24.80;79.20;;;;;;4995518;28;20049;-84
2021/08/17 11:06:40;;;;;;;11.27;3.92;;;24.90;73.90;;;;;;4995219;28;20065;-84
2021/08/17 11:12:35;;;;;;;13.75;4.65;;;24.50;75.30;;;;;;4994958;28;20077;-87
2021/08/17 11:18:23;;;;;;;10.98;4.00;;;24.60;77.00;;;;;;4997821;28;20069;-90
2021/08/17 11:24:13;;;;;;;14.23;4.93;;;26.00;75.10;;;;;;4995544;28;20054;-86
2021/08/17 11:30:15;;;;;;;11.45;3.30;;;25.60;73.50;;;;;;4995234;28;20044;-86
2021/08/17 11:36:24;;;;;;;10.82;4.10;;;26.40;77.80;;;;;;4994725;28;20442;-86
2021/08/17 11:42:20;;;;;;;14.07;4.15;;;27.80;73.00;;;;;;4994847;28;20072;-87
2021/08/17 11:48:08;;;;;;;10.30;4.13;;;27.30;68.40;;;;;;4995683;28;20029;-90
2021/08/17 11:53:56;;;;;;;9.35;2.90;;;27.30;71.30;;;;;;4994849;28;20125;-86
2021/08/17 11:59:47;;;;;;;10.38;3.53;;;27.10;69.90;;;;;;4995069;28;20494;-89
2021/08/17 12:05:37;;;;;;;14.98;5.07;;;27.40;69.50;;;;;;4994957;28;20037;-88
2021/08/17 12:11:26;;;;;;;11.43;4.00;;;27.10;67.80;;;;;;4994439;28;20076;-85
2021/08/17 12:17:20;;;;;;;13.23;4.10;;;26.50;72.50;;;;;;4994415;28;20505;-85
2021/08/17 12:23:23;;;;;;;9.93;4.00;;;26.30;70.60;;;;;;4994052;28;20041;-87
2021/08/17 12:33:12;;;;;;;10.82;4.28;;;24.70;73.90;;;;;;4994408;28;20125;-85
2021/08/17 12:39:11;;;;;;;8.65;3.53;;;23.80;75.80;;;;;;4999091;28;20038;-89
2021/08/17 12:45:00;;;;;;;11.00;4.50;;;23.30;77.90;;;;;;5004613;28;20093;-86
2021/08/17 12:50:50;;;;;;;11.68;4.40;;;23.50;78.80;;;;;;4994879;28;20124;-90
2021/08/17 12:56:40;;;;;;;14.52;5.50;;;24.00;77.10;;;;;;4998003;28;20064;-86
2021/08/17 13:02:29;;;;;;;14.23;5.15;;;24.20;77.60;;;;;;4997598;28;20145;-85
2021/08/17 13:08:18;;;;;;;15.65;5.40;;;24.70;78.00;;;;;;4997658;28;20064;-88
2021/08/17 13:14:06;;;;;;;13.07;5.20;;;26.10;78.00;;;;;;4997281;28;20034;-87
2021/08/17 13:19:55;;;;;;;16.42;5.22;;;27.50;74.00;;;;;;4998018;28;20084;-88
2021/08/17 13:25:44;;;;;;;12.50;4.25;;;27.20;68.80;;;;;;4997847;28;20033;-90
2021/08/17 13:35:37;;;;;;;8.90;4.10;;;25.90;71.10;;;;;;4997772;28;20064;-88
2021/08/17 13:41:25;;;;;;;9.90;4.45;;;25.30;72.90;;;;;;4997684;28;20398;-88
2021/08/17 13:47:14;;;;;;;12.45;4.47;;;25.00;74.60;;;;;;4997970;28;20494;-89
2021/08/17 13:53:05;;;;;;;10.65;4.38;;;24.70;73.90;;;;;;5000685;28;20038;-89
2021/08/17 13:58:55;;;;;;;10.20;4.32;;;24.40;75.00;;;;;;4997018;28;20069;-85
2021/08/17 14:04:43;;;;;;;10.70;4.53;;;24.10;75.60;;;;;;4996497;28;20442;-85
2021/08/17 14:10:33;;;;;;;9.75;4.30;;;24.00;77.00;;;;;;4996722;28;20114;-87
2021/08/17 14:16:21;;;;;;;10.20;3.95;;;23.80;77.10;;;;;;4996535;28;20057;-85
2021/08/17 14:22:14;;;;;;;9.48;4.07;;;23.60;77.00;;;;;;4995986;28;20173;-85
2021/08/17 14:28:03;;;;;;;8.20;3.35;;;23.60;77.50;;;;;;4995975;28;20030;-85
2021/08/17 14:37:52;;;;;;;9.82;4.43;;;23.50;76.40;;;;;;4995959;28;20078;-85
2021/08/17 14:43:41;;;;;;;10.05;4.25;;;23.40;78.60;;;;;;4995524;28;20049;-85
2021/08/17 14:49:30;;;;;;;17.02;5.10;;;23.40;79.00;;;;;;4995534;28;20034;-85
2021/08/17 14:55:18;;;;;;;9.70;4.32;;;24.40;79.60;;;;;;4995737;28;20101;-89
2021/08/17 15:01:07;;;;;;;13.85;4.07;;;25.10;75.90;;;;;;4995297;28;20076;-87
2021/08/17 15:06:55;;;;;;;8.82;3.78;;;25.10;74.30;;;;;;4995661;28;20037;-87
2021/08/17 15:12:44;;;;;;;8.63;4.05;;;24.50;74.10;;;;;;4995429;28;20045;-87
2021/08/17 15:18:33;;;;;;;11.48;4.90;;;23.60;75.50;;;;;;4995342;28;20033;-86
2021/08/17 15:24:22;;;;;;;15.05;4.70;;;22.90;77.10;;;;;;4995190;28;20085;-87
2021/08/17 15:30:13;;;;;;;9.63;4.43;;;22.60;78.40;;;;;;4995075;28;20486;-86
2021/08/17 15:39:56;;;;;;;9.10;4.22;;;22.50;79.50;;;;;;4998687;28;20064;-90
2021/08/17 15:46:10;;;;;;;10.23;4.13;;;22.40;80.10;;;;;;4995883;28;20053;-87
2021/08/17 15:51:59;;;;;;;10.50;3.70;;;22.30;80.30;;;;;;4995361;28;20117;-89
2021/08/17 15:57:48;;;;;;;9.90;3.65;;;22.10;80.40;;;;;;4994724;28;20037;-86
2021/08/17 16:03:37;;;;;;;11.05;4.15;;;21.80;80.60;;;;;;4994366;28;20073;-87
2021/08/17 16:09:25;;;;;;;8.90;3.85;;;21.50;81.20;;;;;;4994601;28;20033;-85
2021/08/17 16:15:16;;;;;;;8.90;4.38;;;21.40;82.00;;;;;;4994120;28;20073;-84
2021/08/17 16:21:06;;;;;;;9.15;4.10;;;21.20;82.20;;;;;;4994830;28;20108;-82
2021/08/17 16:26:55;;;;;;;9.38;4.22;;;20.90;81.50;;;;;;4996571;28;20053;-88
2021/08/17 16:32:44;;;;;;;10.95;4.47;;;20.70;83.20;;;;;;4998179;28;20494;-82
2021/08/17 16:42:33;;;;;;;10.13;4.10;;;20.50;83.80;;;;;;4997997;28;20104;-83
2021/08/17 16:48:22;;;;;;;8.32;3.78;;;20.60;84.20;;;;;;4998013;28;20080;-82
2021/08/17 16:54:11;;;;;;;9.35;4.25;;;20.50;83.60;;;;;;4997883;28;20370;-83
2021/08/17 16:59:59;;;;;;;10.10;3.90;;;20.40;84.00;;;;;;4997770;28;20061;-80
2021/08/17 17:05:51;;;;;;;9.15;4.40;;;20.20;84.60;;;;;;4997511;28;20084;-82
2021/08/17 17:11:39;;;;;;;10.23;4.28;;;20.20;85.10;;;;;;4997344;28;20081;-84
2021/08/17 17:17:28;;;;;;;10.10;4.15;;;20.10;84.60;;;;;;4997603;28;20387;-85
2021/08/17 17:23:18;;;;;;;10.05;3.97;;;19.90;84.60;;;;;;5018191;28;20045;-83
2021/08/17 17:29:10;;;;;;;14.05;4.90;;;19.80;85.00;;;;;;5001333;28;20029;-87
2021/08/17 17:35:02;;;;;;;9.15;4.38;;;19.60;84.80;;;;;;5008719;28;20049;-87
2021/08/17 17:44:52;;;;;;;9.68;4.53;;;19.40;85.20;;;;;;4997398;28;20449;-83
2021/08/17 17:50:40;;;;;;;9.30;4.40;;;19.30;85.60;;;;;;4996954;28;20065;-83
2021/08/17 17:56:29;;;;;;;9.32;3.97;;;19.10;85.70;;;;;;4996897;28;20033;-84
2021/08/17 18:02:22;;;;;;;9.68;4.38;;;18.90;86.10;;;;;;4996961;28;20090;-85
2021/08/17 18:08:11;;;;;;;8.98;4.13;;;18.80;86.20;;;;;;4996474;28;20426;-85
2021/08/17 18:14:01;;;;;;;8.75;3.70;;;18.70;86.40;;;;;;4996537;28;20025;-85
2021/08/17 18:19:53;;;;;;;13.10;4.30;;;18.70;86.70;;;;;;4996105;28;20085;-83
2021/08/17 18:25:52;;;;;;;9.63;4.20;;;18.60;87.00;;;;;;4996205;28;20149;-82
2021/08/17 18:31:42;;;;;;;9.90;4.28;;;18.50;86.90;;;;;;4997463;28;20084;-85
2021/08/17 18:37:35;;;;;;;9.63;4.30;;;18.40;87.00;;;;;;4997439;28;20034;-84
2021/08/17 18:47:25;;;;;;;8.75;4.20;;;18.30;87.20;;;;;;5013602;28;20054;-84
2021/08/17 18:53:15;;;;;;;8.93;3.90;;;18.20;87.30;;;;;;4998712;28;20029;-84
2021/08/17 18:59:03;;;;;;;10.85;4.60;;;18.20;87.40;;;;;;4996706;28;20158;-85
2021/08/17 19:04:53;;;;;;;9.07;4.30;;;18.10;87.60;;;;;;4996487;28;20093;-84
2021/08/17 19:10:48;;;;;;;11.02;4.30;;;18.00;87.70;;;;;;4995157;28;20077;-85
2021/08/17 19:16:36;;;;;;;9.15;4.10;;;17.90;87.60;;;;;;4995316;28;20033;-84
2021/08/17 19:22:25;;;;;;;10.05;4.50;;;17.90;87.60;;;;;;4995004;28;20053;-84
2021/08/17 19:28:13;;;;;;;12.13;4.18;;;17.70;87.60;;;;;;4995884;28;20033;-84
2021/08/17 19:34:02;;;;;;;9.43;3.75;;;17.60;87.60;;;;;;4995901;28;20041;-86
2021/08/17 19:39:51;;;;;;;9.80;4.03;;;17.60;87.30;;;;;;4995687;28;20041;-85
2021/08/17 19:49:41;;;;;;;10.05;4.30;;;17.40;87.40;;;;;;4996784;28;20088;-86
2021/08/17 19:55:30;;;;;;;10.32;4.40;;;17.20;87.70;;;;;;4997322;28;20060;-88
2021/08/17 20:01:19;;;;;;;9.60;4.10;;;17.00;87.30;;;;;;4995739;28;20029;-88
2021/08/17 20:07:08;;;;;;;10.35;4.78;;;16.80;86.90;;;;;;4997075;28;20088;-87
2021/08/17 20:12:57;;;;;;;11.23;4.97;;;16.60;86.90;;;;;;4999874;28;20072;-87
2021/08/17 20:18:45;;;;;;;11.25;5.05;;;16.50;87.40;;;;;;4995158;28;20042;-87
2021/08/17 20:24:34;;;;;;;11.27;5.00;;;16.40;87.20;;;;;;4994912;28;20533;-86
2021/08/17 20:30:22;;;;;;;12.10;5.10;;;16.20;86.90;;;;;;4995770;28;20494;-90
2021/08/17 20:36:12;;;;;;;9.90;4.82;;;15.90;86.70;;;;;;4996054;28;20103;-88
2021/08/17 20:42:00;;;;;;;10.63;5.32;;;15.80;87.30;;;;;;4995360;28;20065;-89
2021/08/17 20:51:44;;;;;;;13.35;5.30;;;15.60;87.40;;;;;;4997743;28;20080;-89
2021/08/17 20:57:32;;;;;;;12.90;5.85;;;15.40;87.30;;;;;;4995314;28;20391;-88
2021/08/17 21:03:22;;;;;;;14.88;5.63;;;15.30;87.70;;;;;;4996033;28;20507;-90
2021/08/17 21:09:10;;;;;;;11.48;5.53;;;15.20;88.20;;;;;;4994982;28;20130;-89
2021/08/17 21:14:59;;;;;;;12.50;5.95;;;15.20;88.60;;;;;;4997587;28;20033;-87
2021/08/17 21:20:47;;;;;;;12.38;5.30;;;15.20;88.70;;;;;;4997634;28;20068;-87
2021/08/17 21:26:36;;;;;;;11.38;5.18;;;15.30;89.10;;;;;;4997562;28;20036;-87
2021/08/17 21:32:27;;;;;;;13.10;5.80;;;15.30;89.10;;;;;;5010388;28;20122;-86
2021/08/17 21:38:17;;;;;;;13.68;6.75;;;15.30;89.00;;;;;;4998116;28;20042;-86
2021/08/17 21:44:06;;;;;;;12.00;5.85;;;15.30;89.20;;;;;;4997711;28;20140;-86
2021/08/17 21:53:48;;;;;;;11.93;5.75;;;15.20;89.30;;;;;;4997705;28;20053;-87
2021/08/17 21:59:36;;;;;;;11.85;6.13;;;15.20;89.40;;;;;;4997318;28;20073;-88
2021/08/17 22:05:25;;;;;;;12.75;5.82;;;15.20;89.40;;;;;;4997781;28;20041;-85
2021/08/17 22:11:15;;;;;;;13.65;6.07;;;15.20;89.40;;;;;;4999015;28;20493;-87
2021/08/17 22:17:05;;;;;;;13.32;6.10;;;15.20;89.40;;;;;;4997617;28;20101;-86
2021/08/17 22:22:55;;;;;;;11.80;5.65;;;15.30;89.60;;;;;;4998805;28;20395;-86
2021/08/17 22:28:46;;;;;;;12.23;5.75;;;15.20;89.50;;;;;;5006183;28;20445;-86
2021/08/17 22:34:34;;;;;;;13.82;6.28;;;15.30;89.60;;;;;;4999592;28;20049;-87
2021/08/17 22:40:25;;;;;;;14.35;6.18;;;15.20;89.60;;;;;;4997228;28;20038;-87
2021/08/17 22:46:13;;;;;;;12.70;5.78;;;15.20;89.50;;;;;;4997921;28;20394;-86
2021/08/17 22:55:57;;;;;;;14.07;5.55;;;15.30;89.60;;;;;;5015317;28;20029;-86
2021/08/17 23:01:45;;;;;;;14.13;6.40;;;15.30;89.70;;;;;;5000583;28;20032;-86
2021/08/17 23:07:34;;;;;;;13.93;6.28;;;15.30;89.70;;;;;;4996716;28;20135;-87
2021/08/17 23:13:24;;;;;;;16.67;6.50;;;15.30;89.80;;;;;;4996736;28;20061;-87
2021/08/17 23:19:14;;;;;;;14.52;6.88;;;15.30;89.70;;;;;;4996430;28;20041;-86
2021/08/17 23:25:02;;;;;;;15.80;6.32;;;15.30;89.90;;;;;;4995172;28;20112;-86
2021/08/17 23:30:54;;;;;;;13.60;6.53;;;15.30;89.90;;;;;;4995073;28;20080;-86
2021/08/17 23:36:42;;;;;;;14.43;6.80;;;15.30;90.00;;;;;;4994057;28;20585;-87
2021/08/17 23:42:32;;;;;;;12.80;6.30;;;15.30;90.00;;;;;;4994827;28;20518;-87
2021/08/17 23:48:21;;;;;;;12.23;6.07;;;15.30;90.00;;;;;;4994868;28;20033;-87
2021/08/17 23:57:45;;;;;;;14.85;6.85;;;15.30;89.90;;;;;;4994303;28;20045;-87
